createdAt,value
2019-02-19T00:00:34.418Z,1010.26
2019-02-19T00:01:34.407Z,1010.21
2019-02-19T00:02:34.399Z,1010.23
2019-02-19T00:03:34.390Z,1010.22
2019-02-19T00:04:34.376Z,1010.20
2019-02-19T00:05:34.372Z,1010.21
2019-02-19T00:06:34.367Z,1010.15
2019-02-19T00:07:34.343Z,1010.17
2019-02-19T00:08:34.336Z,1010.17
2019-02-19T00:09:34.322Z,1010.13
2019-02-19T00:10:34.312Z,1010.18
2019-02-19T00:11:34.317Z,1010.20
2019-02-19T00:12:34.309Z,1010.19
2019-02-19T00:13:34.281Z,1010.17
2019-02-19T00:14:34.271Z,1010.20
2019-02-19T00:15:34.265Z,1010.16
2019-02-19T00:16:34.250Z,1010.16
2019-02-19T00:17:34.245Z,1010.13
2019-02-19T00:18:34.233Z,1010.12
2019-02-19T00:19:34.219Z,1010.13
2019-02-19T00:20:34.221Z,1010.12
2019-02-19T00:21:34.197Z,1010.08
2019-02-19T00:22:34.190Z,1010.07
2019-02-19T00:23:34.174Z,1010.05
2019-02-19T00:24:34.171Z,1010.09
2019-02-19T00:25:34.152Z,1010.06
2019-02-19T00:26:34.146Z,1010.02
2019-02-19T00:27:34.133Z,1010.02
2019-02-19T00:28:34.127Z,1010.01
2019-02-19T00:29:34.111Z,1010.05
2019-02-19T00:30:34.115Z,1010.10
2019-02-19T00:31:34.099Z,1010.05
2019-02-19T00:32:34.084Z,1010.06
2019-02-19T00:33:34.075Z,1010.03
2019-02-19T00:34:34.065Z,1010.03
2019-02-19T00:35:34.053Z,1010.05
2019-02-19T00:36:34.040Z,1010.04
2019-02-19T00:37:34.031Z,1010.02
2019-02-19T00:38:34.030Z,1010.03
2019-02-19T00:39:34.050Z,1010.02
2019-02-19T00:40:34.004Z,1010.05
2019-02-19T00:41:33.995Z,1009.97
2019-02-19T00:42:33.976Z,1009.95
2019-02-19T00:43:33.969Z,1009.99
2019-02-19T00:44:33.971Z,1009.99
2019-02-19T00:45:33.947Z,1009.94
2019-02-19T00:46:33.943Z,1009.97
2019-02-19T00:47:33.928Z,1009.99
2019-02-19T00:48:33.914Z,1009.97
2019-02-19T00:49:33.907Z,1009.97
2019-02-19T00:50:33.891Z,1009.90
2019-02-19T00:51:33.886Z,1009.93
2019-02-19T00:52:33.870Z,1009.94
2019-02-19T00:53:33.867Z,1009.87
2019-02-19T00:54:33.852Z,1009.91
2019-02-19T00:55:33.843Z,1009.84
2019-02-19T00:56:33.828Z,1009.85
2019-02-19T00:57:33.820Z,1009.83
2019-02-19T00:58:33.808Z,1009.83
2019-02-19T00:59:33.801Z,1009.85
2019-02-19T01:00:33.786Z,1009.85
2019-02-19T01:01:33.781Z,1009.81
2019-02-19T01:02:33.767Z,1009.84
2019-02-19T01:03:33.769Z,1009.83
2019-02-19T01:04:33.746Z,1009.85
2019-02-19T01:05:33.748Z,1009.84
2019-02-19T01:06:33.727Z,1009.82
2019-02-19T01:07:33.729Z,1009.84
2019-02-19T01:08:33.714Z,1009.78
2019-02-19T01:09:33.749Z,1009.80
2019-02-19T01:10:34.700Z,1009.75
2019-02-19T01:11:33.678Z,1009.75
2019-02-19T01:12:33.663Z,1009.80
2019-02-19T01:13:33.654Z,1009.77
2019-02-19T01:14:33.643Z,1009.75
2019-02-19T01:15:33.631Z,1009.66
2019-02-19T01:16:33.618Z,1009.68
2019-02-19T01:17:33.602Z,1009.67
2019-02-19T01:18:33.592Z,1009.67
2019-02-19T01:19:33.574Z,1009.68
2019-02-19T01:20:33.567Z,1009.66
2019-02-19T01:21:33.551Z,1009.65
2019-02-19T01:22:33.541Z,1009.65
2019-02-19T01:23:33.531Z,1009.61
2019-02-19T01:24:33.531Z,1009.59
2019-02-19T01:25:33.512Z,1009.56
2019-02-19T01:26:33.503Z,1009.56
2019-02-19T01:27:33.488Z,1009.52
2019-02-19T01:28:33.480Z,1009.54
2019-02-19T01:29:33.474Z,1009.55
2019-02-19T01:30:33.460Z,1009.54
2019-02-19T01:31:33.445Z,1009.52
2019-02-19T01:32:33.446Z,1009.47
2019-02-19T01:33:33.424Z,1009.50
2019-02-19T01:34:33.420Z,1009.46
2019-02-19T01:35:33.416Z,1009.50
2019-02-19T01:36:33.394Z,1009.46
2019-02-19T01:37:33.388Z,1009.49
2019-02-19T01:38:33.373Z,1009.43
2019-02-19T01:39:33.360Z,1009.47
2019-02-19T01:40:33.357Z,1009.46
2019-02-19T01:41:33.344Z,1009.46
2019-02-19T01:42:33.330Z,1009.45
2019-02-19T01:43:33.319Z,1009.46
2019-02-19T01:44:33.309Z,1009.44
2019-02-19T01:45:34.273Z,1009.45
2019-02-19T01:46:33.293Z,1009.40
2019-02-19T01:47:33.281Z,1009.40
2019-02-19T01:48:33.271Z,1009.35
2019-02-19T01:49:33.259Z,1009.34
2019-02-19T01:50:33.245Z,1009.33
2019-02-19T01:51:33.234Z,1009.31
2019-02-19T01:52:33.229Z,1009.30
2019-02-19T01:53:33.216Z,1009.31
2019-02-19T01:54:33.252Z,1009.31
2019-02-19T01:55:33.190Z,1009.29
2019-02-19T01:56:33.185Z,1009.30
2019-02-19T01:57:33.289Z,1009.31
2019-02-19T01:58:33.159Z,1009.30
2019-02-19T01:59:33.154Z,1009.28
2019-02-19T02:00:33.157Z,1009.30
2019-02-19T02:01:33.163Z,1009.29
2019-02-19T02:02:33.123Z,1009.27
2019-02-19T02:03:33.115Z,1009.27
2019-02-19T02:04:33.131Z,1009.25
2019-02-19T02:05:33.094Z,1009.28
2019-02-19T02:06:33.094Z,1009.28
2019-02-19T02:07:33.066Z,1009.25
2019-02-19T02:08:33.053Z,1009.25
2019-02-19T02:09:33.042Z,1009.20
2019-02-19T02:10:33.031Z,1009.20
2019-02-19T02:11:33.026Z,1009.21
2019-02-19T02:12:33.028Z,1009.24
2019-02-19T02:13:33.005Z,1009.23
2019-02-19T02:14:32.989Z,1009.25
2019-02-19T02:15:32.985Z,1009.27
2019-02-19T02:16:32.970Z,1009.25
2019-02-19T02:17:32.967Z,1009.24
2019-02-19T02:18:32.957Z,1009.20
2019-02-19T02:19:32.940Z,1009.23
2019-02-19T02:20:32.928Z,1009.23
2019-02-19T02:21:32.916Z,1009.18
2019-02-19T02:22:32.903Z,1009.22
2019-02-19T02:23:32.908Z,1009.20
2019-02-19T02:24:32.884Z,1009.21
2019-02-19T02:25:32.874Z,1009.21
2019-02-19T02:26:32.856Z,1009.17
2019-02-19T02:27:32.854Z,1009.22
2019-02-19T02:28:32.838Z,1009.21
2019-02-19T02:29:32.828Z,1009.20
2019-02-19T02:30:32.815Z,1009.18
2019-02-19T02:31:32.813Z,1009.16
2019-02-19T02:32:32.793Z,1009.17
2019-02-19T02:33:32.832Z,1009.19
2019-02-19T02:34:32.773Z,1009.16
2019-02-19T02:35:32.813Z,1009.13
2019-02-19T02:36:32.758Z,1009.14
2019-02-19T02:37:32.801Z,1009.10
2019-02-19T02:38:32.733Z,1009.12
2019-02-19T02:39:32.728Z,1009.12
2019-02-19T02:40:32.711Z,1009.15
2019-02-19T02:41:32.700Z,1009.15
2019-02-19T02:42:32.683Z,1009.15
2019-02-19T02:43:32.672Z,1009.15
2019-02-19T02:44:32.676Z,1009.07
2019-02-19T02:45:32.663Z,1009.05
2019-02-19T02:46:32.641Z,1009.07
2019-02-19T02:47:32.645Z,1009.06
2019-02-19T02:48:32.618Z,1009.06
2019-02-19T02:49:32.604Z,1009.03
2019-02-19T02:50:32.602Z,1009.08
2019-02-19T02:51:32.587Z,1009.08
2019-02-19T02:52:32.574Z,1009.04
2019-02-19T02:53:32.561Z,1009.03
2019-02-19T02:54:32.552Z,1009.00
2019-02-19T02:55:32.547Z,1008.99
2019-02-19T02:56:32.538Z,1008.96
2019-02-19T02:57:32.537Z,1008.95
2019-02-19T02:58:32.506Z,1008.89
2019-02-19T02:59:32.535Z,1008.94
2019-02-19T03:00:32.497Z,1008.96
2019-02-19T03:01:32.488Z,1008.97
2019-02-19T03:02:32.476Z,1008.93
2019-02-19T03:03:32.477Z,1008.94
2019-02-19T03:04:32.438Z,1008.96
2019-02-19T03:05:32.432Z,1008.95
2019-02-19T03:06:32.417Z,1008.95
2019-02-19T03:07:32.405Z,1008.95
2019-02-19T03:08:32.415Z,1008.95
2019-02-19T03:09:32.403Z,1008.95
2019-02-19T03:10:32.411Z,1008.97
2019-02-19T03:11:32.366Z,1008.92
2019-02-19T03:12:32.358Z,1008.93
2019-02-19T03:13:32.345Z,1008.94
2019-02-19T03:14:32.353Z,1008.93
2019-02-19T03:15:32.334Z,1008.90
2019-02-19T03:16:32.309Z,1008.94
2019-02-19T03:17:32.303Z,1008.93
2019-02-19T03:18:32.284Z,1008.91
2019-02-19T03:19:32.283Z,1008.89
2019-02-19T03:20:32.266Z,1008.90
2019-02-19T03:21:32.253Z,1008.86
2019-02-19T03:22:32.242Z,1008.89
2019-02-19T03:23:32.230Z,1008.87
2019-02-19T03:24:32.226Z,1008.90
2019-02-19T03:25:32.221Z,1008.85
2019-02-19T03:26:32.204Z,1008.87
2019-02-19T03:27:32.187Z,1008.90
2019-02-19T03:28:32.175Z,1008.89
2019-02-19T03:29:32.179Z,1008.92
2019-02-19T03:30:32.165Z,1008.90
2019-02-19T03:31:32.165Z,1008.90
2019-02-19T03:32:32.139Z,1008.90
2019-02-19T03:33:32.122Z,1008.91
2019-02-19T03:34:32.119Z,1008.90
2019-02-19T03:35:32.097Z,1008.87
2019-02-19T03:36:32.093Z,1008.86
2019-02-19T03:37:32.078Z,1008.88
2019-02-19T03:38:32.066Z,1008.89
2019-02-19T03:39:32.053Z,1008.86
2019-02-19T03:40:32.064Z,1008.86
2019-02-19T03:41:32.045Z,1008.88
2019-02-19T03:42:32.035Z,1008.88
2019-02-19T03:43:32.040Z,1008.87
2019-02-19T03:44:32.002Z,1008.92
2019-02-19T03:45:31.993Z,1008.88
2019-02-19T03:46:31.978Z,1008.88
2019-02-19T03:47:31.973Z,1008.90
2019-02-19T03:48:31.970Z,1008.85
2019-02-19T03:49:31.989Z,1008.87
2019-02-19T03:50:31.937Z,1008.86
2019-02-19T03:51:31.928Z,1008.89
2019-02-19T03:52:31.921Z,1008.89
2019-02-19T03:53:31.915Z,1008.90
2019-02-19T03:54:31.916Z,1008.88
2019-02-19T03:55:31.890Z,1008.90
2019-02-19T03:56:31.871Z,1008.96
2019-02-19T03:57:31.862Z,1008.93
2019-02-19T03:58:31.860Z,1008.93
2019-02-19T03:59:31.857Z,1008.94
2019-02-19T04:00:31.840Z,1008.94
2019-02-19T04:01:31.834Z,1008.92
2019-02-19T04:02:31.812Z,1008.91
2019-02-19T04:03:31.803Z,1008.97
2019-02-19T04:04:31.788Z,1008.93
2019-02-19T04:05:31.783Z,1008.95
2019-02-19T04:06:32.469Z,1008.97
2019-02-19T04:07:31.754Z,1008.96
2019-02-19T04:08:31.747Z,1008.95
2019-02-19T04:09:31.745Z,1008.92
2019-02-19T04:10:31.738Z,1008.97
2019-02-19T04:11:31.713Z,1008.97
2019-02-19T04:12:31.708Z,1008.90
2019-02-19T04:13:31.690Z,1008.96
2019-02-19T04:14:31.685Z,1008.91
2019-02-19T04:15:31.671Z,1008.95
2019-02-19T04:16:31.664Z,1008.92
2019-02-19T04:17:31.653Z,1008.89
2019-02-19T04:18:31.640Z,1008.91
2019-02-19T04:19:31.630Z,1008.89
2019-02-19T04:20:31.618Z,1008.88
2019-02-19T04:21:31.613Z,1008.84
2019-02-19T04:22:31.604Z,1008.80
2019-02-19T04:23:31.584Z,1008.85
2019-02-19T04:24:31.579Z,1008.84
2019-02-19T04:25:31.561Z,1008.84
2019-02-19T04:26:31.557Z,1008.87
2019-02-19T04:27:31.544Z,1008.86
2019-02-19T04:28:31.541Z,1008.85
2019-02-19T04:29:31.520Z,1008.84
2019-02-19T04:30:31.515Z,1008.86
2019-02-19T04:31:31.862Z,1008.83
2019-02-19T04:32:31.489Z,1008.88
2019-02-19T04:33:31.479Z,1008.86
2019-02-19T04:34:31.468Z,1008.84
2019-02-19T04:35:31.464Z,1008.85
2019-02-19T04:36:31.466Z,1008.85
2019-02-19T04:37:31.433Z,1008.82
2019-02-19T04:38:31.425Z,1008.85
2019-02-19T04:39:31.419Z,1008.84
2019-02-19T04:40:31.402Z,1008.83
2019-02-19T04:41:31.395Z,1008.83
2019-02-19T04:42:31.401Z,1008.81
2019-02-19T04:43:31.380Z,1008.82
2019-02-19T04:44:31.363Z,1008.81
2019-02-19T04:45:31.366Z,1008.85
2019-02-19T04:46:31.914Z,1008.85
2019-02-19T04:47:31.332Z,1008.85
2019-02-19T04:48:31.317Z,1008.82
2019-02-19T04:49:31.319Z,1008.84
2019-02-19T04:50:31.307Z,1008.82
2019-02-19T04:51:31.284Z,1008.83
2019-02-19T04:52:31.276Z,1008.80
2019-02-19T04:53:31.285Z,1008.82
2019-02-19T04:54:31.250Z,1008.83
2019-02-19T04:55:31.240Z,1008.82
2019-02-19T04:56:31.245Z,1008.81
2019-02-19T04:57:31.234Z,1008.84
2019-02-19T04:58:31.213Z,1008.82
2019-02-19T04:59:31.209Z,1008.83
2019-02-19T05:00:31.190Z,1008.80
2019-02-19T05:01:31.174Z,1008.82
2019-02-19T05:02:31.175Z,1008.79
2019-02-19T05:03:31.165Z,1008.82
2019-02-19T05:04:31.158Z,1008.81
2019-02-19T05:05:31.139Z,1008.82
2019-02-19T05:06:31.135Z,1008.79
2019-02-19T05:07:31.116Z,1008.80
2019-02-19T05:08:31.112Z,1008.82
2019-02-19T05:09:31.126Z,1008.79
2019-02-19T05:10:31.084Z,1008.75
2019-02-19T05:11:31.082Z,1008.73
2019-02-19T05:12:31.062Z,1008.74
2019-02-19T05:13:31.056Z,1008.71
2019-02-19T05:14:31.052Z,1008.73
2019-02-19T05:15:31.030Z,1008.70
2019-02-19T05:16:40.214Z,1008.73
2019-02-19T05:17:32.007Z,1008.77
2019-02-19T05:18:30.997Z,1008.75
2019-02-19T05:19:30.992Z,1008.72
2019-02-19T05:20:30.979Z,1008.78
2019-02-19T05:21:30.964Z,1008.80
2019-02-19T05:22:30.963Z,1008.80
2019-02-19T05:23:30.944Z,1008.79
2019-02-19T05:24:30.933Z,1008.77
2019-02-19T05:25:30.931Z,1008.79
2019-02-19T05:26:30.915Z,1008.79
2019-02-19T05:27:30.903Z,1008.75
2019-02-19T05:28:30.903Z,1008.78
2019-02-19T05:29:30.892Z,1008.76
2019-02-19T05:30:30.872Z,1008.77
2019-02-19T05:31:30.866Z,1008.81
2019-02-19T05:32:30.853Z,1008.81
2019-02-19T05:33:30.842Z,1008.81
2019-02-19T05:34:30.829Z,1008.78
2019-02-19T05:35:30.843Z,1008.78
2019-02-19T05:36:30.817Z,1008.80
2019-02-19T05:37:30.813Z,1008.75
2019-02-19T05:38:30.790Z,1008.79
2019-02-19T05:39:30.778Z,1008.80
2019-02-19T05:40:30.770Z,1008.80
2019-02-19T05:41:30.753Z,1008.83
2019-02-19T05:42:30.752Z,1008.84
2019-02-19T05:43:30.734Z,1008.87
2019-02-19T05:44:30.783Z,1008.88
2019-02-19T05:45:30.714Z,1008.84
2019-02-19T05:46:30.708Z,1008.84
2019-02-19T05:47:30.692Z,1008.84
2019-02-19T05:48:30.682Z,1008.81
2019-02-19T05:49:30.670Z,1008.84
2019-02-19T05:50:30.671Z,1008.84
2019-02-19T05:51:30.650Z,1008.86
2019-02-19T05:52:30.644Z,1008.86
2019-02-19T05:53:30.632Z,1008.85
2019-02-19T05:54:30.635Z,1008.84
2019-02-19T05:55:30.609Z,1008.87
2019-02-19T05:56:30.612Z,1008.84
2019-02-19T05:57:30.594Z,1008.82
2019-02-19T05:58:30.585Z,1008.86
2019-02-19T05:59:32.504Z,1008.87
2019-02-19T06:00:30.562Z,1008.87
2019-02-19T06:01:30.544Z,1008.87
2019-02-19T06:02:30.545Z,1008.90
2019-02-19T06:03:30.539Z,1008.90
2019-02-19T06:04:30.532Z,1008.88
2019-02-19T06:05:30.500Z,1008.92
2019-02-19T06:06:30.495Z,1008.90
2019-02-19T06:07:30.481Z,1008.91
2019-02-19T06:08:30.480Z,1008.91
2019-02-19T06:09:30.462Z,1008.92
2019-02-19T06:10:30.449Z,1008.92
2019-02-19T06:11:30.443Z,1008.97
2019-02-19T06:12:30.428Z,1009.00
2019-02-19T06:13:30.416Z,1008.94
2019-02-19T06:14:30.408Z,1009.00
2019-02-19T06:15:30.428Z,1008.98
2019-02-19T06:16:30.410Z,1009.02
2019-02-19T06:17:30.378Z,1009.03
2019-02-19T06:18:30.365Z,1009.01
2019-02-19T06:19:30.357Z,1009.07
2019-02-19T06:20:30.361Z,1009.04
2019-02-19T06:21:30.345Z,1009.10
2019-02-19T06:22:30.341Z,1009.07
2019-02-19T06:23:30.318Z,1009.10
2019-02-19T06:24:30.302Z,1009.13
2019-02-19T06:25:30.293Z,1009.14
2019-02-19T06:26:30.279Z,1009.14
2019-02-19T06:27:30.275Z,1009.15
2019-02-19T06:28:30.282Z,1009.16
2019-02-19T06:29:30.249Z,1009.21
2019-02-19T06:30:30.238Z,1009.17
2019-02-19T06:31:30.251Z,1009.14
2019-02-19T06:32:30.217Z,1009.13
2019-02-19T06:33:30.217Z,1009.14
2019-02-19T06:34:30.198Z,1009.14
2019-02-19T06:35:30.186Z,1009.10
2019-02-19T06:36:30.186Z,1009.16
2019-02-19T06:37:30.167Z,1009.17
2019-02-19T06:38:30.155Z,1009.17
2019-02-19T06:39:30.150Z,1009.21
2019-02-19T06:40:30.145Z,1009.21
2019-02-19T06:41:30.119Z,1009.17
2019-02-19T06:42:30.110Z,1009.20
2019-02-19T06:43:30.100Z,1009.18
2019-02-19T06:44:30.113Z,1009.21
2019-02-19T06:45:30.094Z,1009.23
2019-02-19T06:46:30.084Z,1009.25
2019-02-19T06:47:30.056Z,1009.20
2019-02-19T06:48:30.044Z,1009.22
2019-02-19T06:49:30.045Z,1009.25
2019-02-19T06:50:30.023Z,1009.26
2019-02-19T06:51:30.028Z,1009.26
2019-02-19T06:52:30.003Z,1009.29
2019-02-19T06:53:29.996Z,1009.27
2019-02-19T06:54:29.982Z,1009.30
2019-02-19T06:55:29.976Z,1009.32
2019-02-19T06:56:29.965Z,1009.28
2019-02-19T06:57:29.968Z,1009.32
2019-02-19T06:58:29.938Z,1009.34
2019-02-19T06:59:29.926Z,1009.35
2019-02-19T07:00:29.918Z,1009.38
2019-02-19T07:01:29.911Z,1009.40
2019-02-19T07:02:29.903Z,1009.39
2019-02-19T07:03:29.907Z,1009.41
2019-02-19T07:04:29.877Z,1009.42
2019-02-19T07:05:29.865Z,1009.41
2019-02-19T07:06:30.736Z,1009.40
2019-02-19T07:07:29.862Z,1009.43
2019-02-19T07:08:29.843Z,1009.42
2019-02-19T07:09:29.847Z,1009.42
2019-02-19T07:10:29.811Z,1009.43
2019-02-19T07:11:29.800Z,1009.41
2019-02-19T07:12:29.790Z,1009.44
2019-02-19T07:13:29.791Z,1009.43
2019-02-19T07:14:29.779Z,1009.42
2019-02-19T07:15:29.790Z,1009.51
2019-02-19T07:16:29.749Z,1009.45
2019-02-19T07:17:29.737Z,1009.43
2019-02-19T07:18:29.734Z,1009.43
2019-02-19T07:19:29.727Z,1009.45
2019-02-19T07:20:29.713Z,1009.46
2019-02-19T07:21:29.722Z,1009.47
2019-02-19T07:22:29.684Z,1009.52
2019-02-19T07:23:29.710Z,1009.46
2019-02-19T07:24:29.661Z,1009.45
2019-02-19T07:25:29.650Z,1009.48
2019-02-19T07:26:29.654Z,1009.45
2019-02-19T07:27:29.630Z,1009.44
2019-02-19T07:28:29.620Z,1009.49
2019-02-19T07:29:29.610Z,1009.47
2019-02-19T07:30:29.623Z,1009.50
2019-02-19T07:31:29.602Z,1009.48
2019-02-19T07:32:29.594Z,1009.47
2019-02-19T07:33:29.601Z,1009.50
2019-02-19T07:34:29.557Z,1009.49
2019-02-19T07:35:29.545Z,1009.48
2019-02-19T07:36:29.536Z,1009.52
2019-02-19T07:37:29.538Z,1009.52
2019-02-19T07:38:29.533Z,1009.56
2019-02-19T07:39:29.502Z,1009.54
2019-02-19T07:40:29.493Z,1009.54
2019-02-19T07:41:29.485Z,1009.57
2019-02-19T07:42:29.474Z,1009.51
2019-02-19T07:43:29.465Z,1009.51
2019-02-19T07:44:29.452Z,1009.51
2019-02-19T07:45:29.443Z,1009.46
2019-02-19T07:46:29.430Z,1009.50
2019-02-19T07:47:29.423Z,1009.51
2019-02-19T07:48:29.411Z,1009.53
2019-02-19T07:49:29.409Z,1009.56
2019-02-19T07:50:29.393Z,1009.57
2019-02-19T07:51:29.378Z,1009.59
2019-02-19T07:52:29.371Z,1009.65
2019-02-19T07:53:29.357Z,1009.61
2019-02-19T07:54:29.347Z,1009.66
2019-02-19T07:55:29.340Z,1009.61
2019-02-19T07:56:29.327Z,1009.62
2019-02-19T07:57:29.319Z,1009.64
2019-02-19T07:58:29.310Z,1009.68
2019-02-19T07:59:29.306Z,1009.68
2019-02-19T08:00:29.285Z,1009.68
2019-02-19T08:01:29.298Z,1009.66
2019-02-19T08:02:29.305Z,1009.68
2019-02-19T08:03:29.249Z,1009.64
2019-02-19T08:04:29.243Z,1009.68
2019-02-19T08:05:29.244Z,1009.67
2019-02-19T08:06:29.227Z,1009.71
2019-02-19T08:07:29.229Z,1009.71
2019-02-19T08:08:29.204Z,1009.70
2019-02-19T08:09:29.188Z,1009.73
2019-02-19T08:10:29.178Z,1009.70
2019-02-19T08:11:29.166Z,1009.75
2019-02-19T08:12:29.161Z,1009.75
2019-02-19T08:13:29.168Z,1009.78
2019-02-19T08:14:29.143Z,1009.75
2019-02-19T08:15:29.122Z,1009.72
2019-02-19T08:16:29.119Z,1009.75
2019-02-19T08:17:33.386Z,1009.76
2019-02-19T08:18:29.158Z,1009.76
2019-02-19T08:19:29.081Z,1009.79
2019-02-19T08:20:29.073Z,1009.76
2019-02-19T08:21:29.059Z,1009.74
2019-02-19T08:22:29.056Z,1009.74
2019-02-19T08:23:29.930Z,1009.74
2019-02-19T08:24:29.038Z,1009.77
2019-02-19T08:25:29.018Z,1009.79
2019-02-19T08:26:29.015Z,1009.76
2019-02-19T08:27:28.997Z,1009.80
2019-02-19T08:28:28.984Z,1009.82
2019-02-19T08:29:28.973Z,1009.82
2019-02-19T08:30:28.979Z,1009.77
2019-02-19T08:31:28.954Z,1009.81
2019-02-19T08:32:28.942Z,1009.83
2019-02-19T08:33:28.933Z,1009.83
2019-02-19T08:34:28.926Z,1009.83
2019-02-19T08:35:28.922Z,1009.85
2019-02-19T08:36:29.753Z,1009.86
2019-02-19T08:37:28.888Z,1009.85
2019-02-19T08:38:28.878Z,1009.84
2019-02-19T08:39:28.872Z,1009.83
2019-02-19T08:40:28.859Z,1009.79
2019-02-19T08:41:28.852Z,1009.83
2019-02-19T08:42:28.840Z,1009.85
2019-02-19T08:43:28.826Z,1009.84
2019-02-19T08:44:28.817Z,1009.81
2019-02-19T08:45:28.816Z,1009.86
2019-02-19T08:46:28.800Z,1009.88
2019-02-19T08:47:28.813Z,1009.90
2019-02-19T08:48:28.789Z,1009.92
2019-02-19T08:49:28.773Z,1009.91
2019-02-19T08:50:28.753Z,1009.92
2019-02-19T08:51:28.762Z,1009.95
2019-02-19T08:52:28.730Z,1010.02
2019-02-19T08:53:28.744Z,1010.03
2019-02-19T08:54:28.710Z,1010.02
2019-02-19T08:55:28.700Z,1009.99
2019-02-19T08:56:28.688Z,1010.01
2019-02-19T08:57:28.678Z,1010.02
2019-02-19T08:58:28.700Z,1010.08
2019-02-19T08:59:28.659Z,1010.03
2019-02-19T09:00:28.644Z,1010.05
2019-02-19T09:01:28.636Z,1010.06
2019-02-19T09:02:28.655Z,1010.07
2019-02-19T09:03:28.614Z,1010.07
2019-02-19T09:04:28.612Z,1010.08
2019-02-19T09:05:28.601Z,1010.09
2019-02-19T09:06:28.579Z,1010.10
2019-02-19T09:07:28.575Z,1010.13
2019-02-19T09:08:28.569Z,1010.11
2019-02-19T09:09:28.556Z,1010.09
2019-02-19T09:10:28.539Z,1010.02
2019-02-19T09:11:28.535Z,1010.04
2019-02-19T09:12:28.516Z,1010.09
2019-02-19T09:13:28.506Z,1010.10
2019-02-19T09:14:28.502Z,1010.12
2019-02-19T09:15:28.495Z,1010.13
2019-02-19T09:16:28.475Z,1010.13
2019-02-19T09:17:28.479Z,1010.15
2019-02-19T09:18:28.457Z,1010.12
2019-02-19T09:19:28.448Z,1010.18
2019-02-19T09:20:28.436Z,1010.14
2019-02-19T09:21:28.429Z,1010.14
2019-02-19T09:22:28.413Z,1010.18
2019-02-19T09:23:28.408Z,1010.21
2019-02-19T09:24:28.393Z,1010.19
2019-02-19T09:25:28.383Z,1010.20
2019-02-19T09:26:28.370Z,1010.19
2019-02-19T09:27:28.367Z,1010.18
2019-02-19T09:28:28.352Z,1010.14
2019-02-19T09:29:28.345Z,1010.18
2019-02-19T09:30:28.336Z,1010.22
2019-02-19T09:31:28.328Z,1010.15
2019-02-19T09:32:28.322Z,1010.22
2019-02-19T09:33:28.304Z,1010.17
2019-02-19T09:34:28.293Z,1010.21
2019-02-19T09:35:28.286Z,1010.20
2019-02-19T09:36:28.379Z,1010.20
2019-02-19T09:37:28.256Z,1010.16
2019-02-19T09:38:28.252Z,1010.15
2019-02-19T09:39:28.245Z,1010.20
2019-02-19T09:40:28.269Z,1010.17
2019-02-19T09:41:28.212Z,1010.14
2019-02-19T09:42:28.202Z,1010.19
2019-02-19T09:43:35.338Z,1010.17
2019-02-19T09:44:29.179Z,1010.21
2019-02-19T09:45:28.167Z,1010.23
2019-02-19T09:46:28.162Z,1010.26
2019-02-19T09:47:28.150Z,1010.29
2019-02-19T09:48:28.142Z,1010.28
2019-02-19T09:49:28.126Z,1010.25
2019-02-19T09:50:28.137Z,1010.26
2019-02-19T09:51:28.115Z,1010.24
2019-02-19T09:52:28.108Z,1010.26
2019-02-19T09:53:28.083Z,1010.27
2019-02-19T09:54:28.096Z,1010.28
2019-02-19T09:55:28.090Z,1010.26
2019-02-19T09:56:28.068Z,1010.24
2019-02-19T09:57:28.042Z,1010.23
2019-02-19T09:58:28.040Z,1010.26
2019-02-19T09:59:28.021Z,1010.29
2019-02-19T10:00:28.012Z,1010.31
2019-02-19T10:01:28.396Z,1010.31
2019-02-19T10:02:27.994Z,1010.32
2019-02-19T10:03:27.979Z,1010.32
2019-02-19T10:04:27.984Z,1010.36
2019-02-19T10:05:27.967Z,1010.29
2019-02-19T10:06:27.946Z,1010.33
2019-02-19T10:07:27.949Z,1010.32
2019-02-19T10:08:27.926Z,1010.37
2019-02-19T10:09:27.915Z,1010.36
2019-02-19T10:10:27.910Z,1010.39
2019-02-19T10:11:27.897Z,1010.44
2019-02-19T10:12:27.887Z,1010.38
2019-02-19T10:13:27.881Z,1010.41
2019-02-19T10:14:27.866Z,1010.42
2019-02-19T10:15:27.853Z,1010.45
2019-02-19T10:16:27.853Z,1010.47
2019-02-19T10:17:27.829Z,1010.51
2019-02-19T10:18:27.822Z,1010.49
2019-02-19T10:19:27.813Z,1010.47
2019-02-19T10:20:27.800Z,1010.46
2019-02-19T10:21:27.794Z,1010.49
2019-02-19T10:22:27.790Z,1010.52
2019-02-19T10:23:27.766Z,1010.48
2019-02-19T10:24:27.761Z,1010.49
2019-02-19T10:25:27.743Z,1010.51
2019-02-19T10:26:27.732Z,1010.53
2019-02-19T10:27:27.723Z,1010.55
2019-02-19T10:28:27.729Z,1010.57
2019-02-19T10:29:27.706Z,1010.56
2019-02-19T10:30:27.699Z,1010.51
2019-02-19T10:31:27.680Z,1010.52
2019-02-19T10:32:27.670Z,1010.53
2019-02-19T10:33:27.666Z,1010.58
2019-02-19T10:34:27.671Z,1010.56
2019-02-19T10:35:27.637Z,1010.56
2019-02-19T10:36:27.642Z,1010.58
2019-02-19T10:37:27.618Z,1010.59
2019-02-19T10:38:27.605Z,1010.53
2019-02-19T10:39:27.604Z,1010.59
2019-02-19T10:40:27.608Z,1010.56
2019-02-19T10:41:27.582Z,1010.59
2019-02-19T10:42:27.578Z,1010.60
2019-02-19T10:43:27.557Z,1010.62
2019-02-19T10:44:27.542Z,1010.61
2019-02-19T10:45:27.535Z,1010.64
2019-02-19T10:46:27.541Z,1010.64
2019-02-19T10:47:27.516Z,1010.68
2019-02-19T10:48:27.501Z,1010.65
2019-02-19T10:49:27.486Z,1010.64
2019-02-19T10:50:27.478Z,1010.68
2019-02-19T10:51:27.479Z,1010.67
2019-02-19T10:52:27.457Z,1010.65
2019-02-19T10:53:27.452Z,1010.64
2019-02-19T10:54:27.433Z,1010.68
2019-02-19T10:55:27.434Z,1010.64
2019-02-19T10:56:27.414Z,1010.63
2019-02-19T10:57:27.417Z,1010.61
2019-02-19T10:58:27.397Z,1010.60
2019-02-19T10:59:27.407Z,1010.62
2019-02-19T11:00:27.369Z,1010.66
2019-02-19T11:01:27.358Z,1010.63
2019-02-19T11:02:27.353Z,1010.62
2019-02-19T11:03:27.341Z,1010.59
2019-02-19T11:04:27.336Z,1010.57
2019-02-19T11:05:27.338Z,1010.57
2019-02-19T11:06:27.308Z,1010.59
2019-02-19T11:07:27.296Z,1010.57
2019-02-19T11:08:27.290Z,1010.56
2019-02-19T11:09:27.280Z,1010.60
2019-02-19T11:10:27.277Z,1010.59
2019-02-19T11:11:27.256Z,1010.52
2019-02-19T11:12:27.246Z,1010.55
2019-02-19T11:13:27.234Z,1010.53
2019-02-19T11:14:27.226Z,1010.51
2019-02-19T11:15:27.212Z,1010.57
2019-02-19T11:16:27.209Z,1010.55
2019-02-19T11:17:27.195Z,1010.57
2019-02-19T11:18:28.835Z,1010.61
2019-02-19T11:19:27.169Z,1010.60
2019-02-19T11:20:28.857Z,1010.62
2019-02-19T11:21:27.154Z,1010.64
2019-02-19T11:22:27.149Z,1010.63
2019-02-19T11:23:27.141Z,1010.63
2019-02-19T11:24:27.122Z,1010.65
2019-02-19T11:25:27.109Z,1010.61
2019-02-19T11:26:27.108Z,1010.67
2019-02-19T11:27:27.093Z,1010.66
2019-02-19T11:28:27.100Z,1010.65
2019-02-19T11:29:27.073Z,1010.65
2019-02-19T11:30:27.100Z,1010.77
2019-02-19T11:31:27.041Z,1010.72
2019-02-19T11:32:27.038Z,1010.78
2019-02-19T11:33:27.020Z,1010.76
2019-02-19T11:34:27.068Z,1010.71
2019-02-19T11:35:27.008Z,1010.73
2019-02-19T11:36:26.993Z,1010.69
2019-02-19T11:37:26.984Z,1010.67
2019-02-19T11:38:26.977Z,1010.69
2019-02-19T11:39:26.966Z,1010.71
2019-02-19T11:40:26.950Z,1010.66
2019-02-19T11:41:26.956Z,1010.68
2019-02-19T11:42:26.928Z,1010.72
2019-02-19T11:43:26.924Z,1010.63
2019-02-19T11:44:26.917Z,1010.83
2019-02-19T11:45:26.900Z,1010.67
2019-02-19T11:46:26.890Z,1010.61
2019-02-19T11:47:26.879Z,1010.59
2019-02-19T11:48:26.863Z,1010.58
2019-02-19T11:49:26.877Z,1010.56
2019-02-19T11:50:26.854Z,1010.56
2019-02-19T11:51:26.840Z,1010.54
2019-02-19T11:52:26.825Z,1010.47
2019-02-19T11:53:26.810Z,1010.41
2019-02-19T11:54:26.798Z,1010.40
2019-02-19T11:55:26.790Z,1010.41
2019-02-19T11:56:26.800Z,1010.45
2019-02-19T11:57:26.768Z,1010.46
2019-02-19T11:58:26.758Z,1010.40
2019-02-19T11:59:26.752Z,1010.41
2019-02-19T12:00:26.737Z,1010.44
2019-02-19T12:01:26.735Z,1010.40
2019-02-19T12:02:32.747Z,1010.41
2019-02-19T12:03:27.715Z,1010.42
2019-02-19T12:04:26.695Z,1010.43
2019-02-19T12:05:26.686Z,1010.43